Time;durP1;ratioP1;P1;durP2;ratioP2;P2;SDS_P1;SDS_P2;PMS_P1;PMS_P2;Temp;Humidity;BMP_temperature;BMP_pressure;BME280_temperature;BME280_humidity;BME280_pressure;Samples;Min_cycle;Max_cycle;Signal;HPM_P1;HPM_P2
2023/07/27 13:54:02;;;;;;;4.60;3.10;;;;;;;21.84;76.41;100304.60;107882;1251;959604;31
2023/07/27 13:56:30;;;;;;;4.60;3.10;;;;;;;21.82;75.59;100306.60;108616;1233;58477;-71
2023/07/27 13:58:58;;;;;;;5.80;2.90;;;;;;;21.77;75.73;100304.27;108545;1240;73024;-69
2023/07/27 14:01:26;;;;;;;3.90;2.70;;;;;;;22.06;75.06;100298.63;109003;1228;71393;-70
2023/07/27 14:03:54;;;;;;;6.30;2.70;;;;;;;22.86;72.99;100296.18;109022;1232;70806;-69
2023/07/27 14:06:21;;;;;;;3.90;2.20;;;;;;;23.41;69.38;100293.56;108730;1236;73738;-70
2023/07/27 14:08:49;;;;;;;3.80;2.10;;;;;;;23.34;69.00;100300.08;108960;1229;59084;-70
2023/07/27 14:11:17;;;;;;;4.60;3.10;;;;;;;22.96;70.18;100296.62;108832;1232;60281;-71
2023/07/27 14:13:44;;;;;;;4.60;2.40;;;;;;;22.28;72.81;100305.98;108798;1236;73424;-70
2023/07/27 14:16:12;;;;;;;3.70;2.50;;;;;;;22.22;72.90;100306.09;109017;1229;61690;-70
2023/07/27 14:18:42;;;;;;;2.50;1.90;;;;;;;22.64;70.33;100306.91;109038;1229;60260;-70
2023/07/27 14:21:09;;;;;;;2.60;2.10;;;;;;;22.51;69.06;100303.63;109039;1232;73654;-71
2023/07/27 14:23:37;;;;;;;4.20;2.60;;;;;;;22.22;70.55;100303.30;109159;1235;59136;-71
2023/07/27 14:26:05;;;;;;;3.00;2.60;;;;;;;21.85;72.34;100299.19;108950;1228;59113;-70
2023/07/27 14:28:32;;;;;;;4.30;3.00;;;;;;;21.75;73.58;100301.11;108919;1229;73697;-70
2023/07/27 14:31:03;;;;;;;3.00;2.50;;;;;;;22.38;72.20;100279.50;109159;1233;72874;-72
2023/07/27 14:33:43;;;;;;;3.60;2.10;;;;;;;22.69;70.62;100291.23;109128;1225;70585;-72
2023/07/27 14:36:11;;;;;;;3.30;2.30;;;;;;;22.72;70.69;100288.21;108946;1229;62901;-70
2023/07/27 14:38:39;;;;;;;4.10;2.00;;;;;;;22.69;71.70;100295.95;108987;1229;61484;-72
2023/07/27 14:41:07;;;;;;;3.30;2.20;;;;;;;22.85;70.49;100292.70;109000;1229;59148;-69
2023/07/27 14:43:39;;;;;;;3.10;1.80;;;;;;;23.09;69.96;100296.48;109078;1228;62933;-70
2023/07/27 14:46:11;;;;;;;3.80;1.70;;;;;;;23.00;68.23;100308.52;109224;1232;72194;-70
2023/07/27 14:48:39;;;;;;;2.30;1.70;;;;;;;23.09;67.56;100308.73;109267;1226;69848;-71
2023/07/27 14:51:06;;;;;;;4.00;1.90;;;;;;;23.04;68.13;100299.64;109452;1228;73985;-72
2023/07/27 14:53:34;;;;;;;2.90;1.70;;;;;;;22.90;69.01;100308.39;109349;1229;58878;-74
2023/07/27 14:56:09;;;;;;;5.00;1.90;;;;;;;23.18;67.61;100296.21;109421;1233;60262;-72
2023/07/27 14:58:38;;;;;;;5.00;1.80;;;;;;;22.74;68.54;100304.93;109355;1225;75028;-72
2023/07/27 15:01:14;;;;;;;4.50;1.50;;;;;;;22.81;69.20;100302.79;109301;1225;62126;-70
2023/07/27 15:03:42;;;;;;;3.50;1.50;;;;;;;22.43;70.51;100324.44;109175;1233;60593;-70
2023/07/27 15:06:20;;;;;;;2.80;1.60;;;;;;;21.77;72.77;100323.04;109445;1226;62813;-71
2023/07/27 15:08:50;;;;;;;3.30;1.80;;;;;;;21.38;75.27;100314.97;109407;1230;57977;-71
2023/07/27 15:11:21;;;;;;;5.50;1.90;;;;;;;21.48;75.88;100305.98;109451;1226;59016;-72
2023/07/27 15:13:52;;;;;;;1.70;1.60;;;;;;;21.65;75.46;100305.63;109354;1233;62010;-71
2023/07/27 15:16:22;;;;;;;2.60;1.40;;;;;;;21.72;75.43;100310.61;109480;1225;70755;-70
2023/07/27 15:18:50;;;;;;;2.70;1.70;;;;;;;21.45;76.26;100315.48;109492;1229;60030;-70
2023/07/27 15:21:19;;;;;;;3.50;1.10;;;;;;;21.33;76.19;100317.87;109552;1226;73817;-71
2023/07/27 15:23:48;;;;;;;3.40;1.10;;;;;;;20.97;76.69;100325.14;109516;1229;61529;-71
2023/07/27 15:26:18;;;;;;;2.50;1.10;;;;;;;20.74;77.88;100324.83;109366;1226;57366;-71
2023/07/27 15:28:48;;;;;;;1.50;1.00;;;;;;;20.58;79.01;100312.92;109441;1229;62750;-72
2023/07/27 15:31:17;;;;;;;2.10;1.10;;;;;;;20.39;80.18;100322.86;109482;1233;60681;-71
2023/07/27 15:33:47;;;;;;;3.20;0.90;;;;;;;20.31;80.44;100322.17;109393;1233;59273;-71
2023/07/27 15:36:15;;;;;;;2.90;1.10;;;;;;;20.32;80.33;100313.42;109415;1233;63612;-70
2023/07/27 15:38:44;;;;;;;2.00;1.00;;;;;;;20.42;79.53;100318.62;109626;1234;58916;-71
2023/07/27 15:41:13;;;;;;;1.80;1.00;;;;;;;20.61;77.56;100323.61;109617;1226;59080;-72
2023/07/27 15:43:42;;;;;;;2.60;1.20;;;;;;;20.83;75.08;100315.55;109655;1229;63982;-72
2023/07/27 15:46:10;;;;;;;3.20;1.40;;;;;;;21.15;73.61;100314.27;109474;1226;72317;-70
2023/07/27 15:48:37;;;;;;;3.40;1.40;;;;;;;21.57;71.34;100309.27;109608;1226;70293;-70
2023/07/27 15:51:06;;;;;;;2.40;1.40;;;;;;;21.45;70.98;100310.48;109584;1227;73651;-71
2023/07/27 15:59:34;;;;;;;2.50;1.50;;;;;;;21.29;71.64;100321.73;104424;1276;599623;-70
2023/07/27 16:02:06;;;;;;;3.70;1.80;;;;;;;20.87;72.80;100332.98;106200;1262;61214;-71
2023/07/27 16:04:35;;;;;;;2.10;1.40;;;;;;;20.70;73.09;100333.73;106992;1258;61592;-71
2023/07/27 16:07:05;;;;;;;3.70;1.70;;;;;;;20.65;73.54;100335.79;106967;1257;72432;-69
2023/07/27 16:09:34;;;;;;;2.60;1.20;;;;;;;20.61;74.07;100341.17;107341;1258;70794;-72
2023/07/27 16:12:04;;;;;;;4.00;1.60;;;;;;;20.26;76.17;100341.40;106997;1251;305840;-70
2023/07/27 16:14:34;;;;;;;2.50;1.60;;;;;;;20.24;76.38;100342.12;107810;1248;63803;-69
2023/07/27 16:17:04;;;;;;;2.20;1.10;;;;;;;20.24;76.99;100342.52;107634;1256;57506;-71
2023/07/27 16:19:33;;;;;;;1.80;1.20;;;;;;;20.21;76.80;100343.58;107611;1255;60718;-70
2023/07/27 16:22:02;;;;;;;1.70;1.10;;;;;;;20.17;76.51;100331.67;107769;1254;73050;-70
2023/07/27 16:24:31;;;;;;;2.30;1.20;;;;;;;20.19;76.64;100330.58;107728;1252;71488;-74
2023/07/27 16:27:04;;;;;;;2.30;1.10;;;;;;;20.24;76.54;100336.58;107580;1244;71447;-70
2023/07/27 16:29:34;;;;;;;1.90;1.10;;;;;;;20.17;77.10;100339.77;107158;1250;74708;-71
2023/07/27 16:32:04;;;;;;;3.90;1.00;;;;;;;20.34;76.56;100335.15;107304;1247;60863;-72
2023/07/27 16:34:33;;;;;;;4.10;1.00;;;;;;;20.68;75.95;100333.36;107244;1248;60723;-70
2023/07/27 16:37:02;;;;;;;3.20;0.90;;;;;;;20.66;75.88;100336.21;107337;1246;72132;-71
2023/07/27 16:39:31;;;;;;;2.90;1.20;;;;;;;20.52;76.41;100340.77;107143;1256;61936;-71
2023/07/27 16:42:00;;;;;;;2.40;1.00;;;;;;;20.29;77.16;100347.57;107341;1244;70348;-71
2023/07/27 16:44:34;;;;;;;0.80;0.80;;;;;;;20.07;78.38;100351.77;107220;1246;63490;-77
2023/07/27 16:47:04;;;;;;;5.10;1.90;;;;;;;19.90;79.36;100346.96;107195;1255;59088;-70
2023/07/27 16:49:33;;;;;;;4.90;1.20;;;;;;;19.74;80.02;100351.32;107267;1246;60931;-72
2023/07/27 16:52:03;;;;;;;5.00;1.20;;;;;;;19.52;81.25;100351.31;107258;1245;63129;-75
2023/07/27 16:54:35;;;;;;;2.90;1.20;;;;;;;19.39;82.12;100354.05;107185;1245;72561;-76
2023/07/27 16:57:04;;;;;;;2.40;1.20;;;;;;;19.30;82.83;100355.73;107376;1246;71405;-71
2023/07/27 16:59:33;;;;;;;2.00;1.20;;;;;;;19.14;83.58;100356.90;107309;1245;63404;-71
2023/07/27 17:02:04;;;;;;;1.90;1.50;;;;;;;19.10;83.57;100367.34;107172;1253;60570;-74
2023/07/27 17:04:36;;;;;;;3.10;1.70;;;;;;;19.04;83.67;100365.26;107200;1252;59010;-68
2023/07/27 17:07:05;;;;;;;2.50;1.30;;;;;;;18.93;84.61;100370.73;107213;1248;62145;-70
2023/07/27 17:09:37;;;;;;;2.70;1.50;;;;;;;18.87;85.35;100372.50;107345;1245;62009;-73
2023/07/27 17:12:07;;;;;;;3.00;1.30;;;;;;;18.86;85.40;100375.38;107104;1248;59959;-69
2023/07/27 17:14:39;;;;;;;2.90;1.40;;;;;;;18.84;85.55;100381.98;107137;1255;63386;-72
2023/07/27 17:17:09;;;;;;;2.10;1.10;;;;;;;18.85;85.68;100395.13;107348;1245;60403;-72
2023/07/27 17:19:38;;;;;;;2.70;1.10;;;;;;;18.79;86.53;100395.26;107197;1245;59024;-73
2023/07/27 17:22:07;;;;;;;2.10;1.30;;;;;;;18.80;86.30;100394.79;107263;1250;61628;-70
2023/07/27 17:24:36;;;;;;;2.40;1.50;;;;;;;18.82;86.39;100398.09;107267;1246;60841;-71
2023/07/27 17:27:05;;;;;;;10.10;2.10;;;;;;;18.85;86.36;100403.27;107163;1249;60278;-71
2023/07/27 17:29:34;;;;;;;1.70;1.40;;;;;;;18.77;87.01;100403.56;107268;1244;63073;-71
2023/07/27 17:32:04;;;;;;;1.90;1.40;;;;;;;18.80;86.39;100407.61;107169;1246;58972;-70
2023/07/27 17:34:34;;;;;;;3.00;1.50;;;;;;;18.82;85.48;100408.67;107175;1250;59117;-71
2023/07/27 17:37:03;;;;;;;3.40;1.80;;;;;;;18.86;84.93;100409.49;107086;1244;62528;-70
2023/07/27 17:39:32;;;;;;;4.10;2.20;;;;;;;18.86;84.10;100416.69;107098;1244;72282;-72
2023/07/27 17:42:01;;;;;;;4.40;2.10;;;;;;;18.76;84.32;100422.02;107131;1246;60836;-69
2023/07/27 17:44:30;;;;;;;7.30;2.10;;;;;;;18.74;84.69;100425.77;106983;1245;74031;-69
2023/07/27 17:46:59;;;;;;;3.30;1.80;;;;;;;18.72;84.89;100430.27;107025;1246;61057;-69
2023/07/27 17:49:29;;;;;;;2.50;1.90;;;;;;;18.68;84.74;100430.47;107065;1245;61863;-66
2023/07/27 17:51:58;;;;;;;3.00;1.80;;;;;;;18.64;85.01;100429.34;106969;1251;73532;-66
2023/07/27 17:54:27;;;;;;;6.10;1.70;;;;;;;18.60;85.52;100435.10;107154;1246;61354;-65
2023/07/27 17:56:56;;;;;;;2.80;1.60;;;;;;;18.55;85.81;100439.52;107060;1255;59580;-70
2023/07/27 17:59:25;;;;;;;2.50;1.60;;;;;;;18.54;85.91;100442.95;106936;1249;63547;-72
2023/07/27 18:01:54;;;;;;;3.50;1.40;;;;;;;18.49;86.26;100448.74;106969;1255;60964;-69
2023/07/27 18:04:24;;;;;;;3.70;1.60;;;;;;;18.46;86.54;100451.08;106988;1246;61673;-69
2023/07/27 18:06:53;;;;;;;4.00;1.60;;;;;;;18.38;87.05;100441.72;106889;1248;72737;-68
2023/07/27 18:09:22;;;;;;;2.80;1.50;;;;;;;18.37;87.57;100442.75;107010;1245;72469;-68
2023/07/27 18:11:51;;;;;;;2.70;1.50;;;;;;;18.33;87.61;100451.98;107178;1245;69466;-69
2023/07/27 18:14:20;;;;;;;3.90;1.80;;;;;;;18.28;88.17;100453.38;107157;1246;63905;-68
2023/07/27 18:16:49;;;;;;;4.60;1.80;;;;;;;18.27;88.63;100454.02;107143;1246;60452;-67
2023/07/27 18:19:18;;;;;;;2.80;1.40;;;;;;;18.25;88.76;100462.34;107121;1252;61135;-69
2023/07/27 18:21:48;;;;;;;2.30;1.60;;;;;;;18.19;89.30;100461.42;107095;1251;73093;-68
2023/07/27 18:24:20;;;;;;;3.50;1.70;;;;;;;18.16;89.35;100466.84;107134;1246;72065;-68
2023/07/27 18:26:56;;;;;;;5.70;3.10;;;;;;;18.14;90.03;100466.60;107132;1254;70113;-69
2023/07/27 18:29:25;;;;;;;5.10;2.00;;;;;;;18.12;90.45;100464.27;107118;1244;63261;-68
2023/07/27 18:31:54;;;;;;;3.00;1.90;;;;;;;18.06;90.75;100464.83;107160;1254;58996;-69
2023/07/27 18:34:24;;;;;;;4.50;2.80;;;;;;;18.01;91.27;100467.26;107258;1254;60523;-71
2023/07/27 18:36:53;;;;;;;4.40;2.60;;;;;;;17.96;92.03;100470.96;107198;1250;72764;-65
2023/07/27 18:39:22;;;;;;;5.80;2.00;;;;;;;17.89;92.53;100468.74;107104;1248;72821;-64
2023/07/27 18:41:51;;;;;;;5.30;2.00;;;;;;;17.85;92.84;100471.81;107115;1245;71150;-66
2023/07/27 18:44:20;;;;;;;5.10;1.70;;;;;;;17.80;93.00;100471.26;107126;1248;62897;-67
2023/07/27 18:46:52;;;;;;;3.30;2.00;;;;;;;17.71;93.90;100478.69;107235;1247;57488;-66
2023/07/27 18:49:27;;;;;;;3.30;2.00;;;;;;;17.64;95.05;100480.34;107222;1244;59379;-65
2023/07/27 18:51:56;;;;;;;3.20;1.80;;;;;;;17.62;94.92;100482.02;107205;1246;61344;-63
2023/07/27 18:54:26;;;;;;;3.30;2.00;;;;;;;17.55;94.86;100484.27;107132;1255;61222;-68
2023/07/27 18:56:55;;;;;;;7.90;2.50;;;;;;;17.47;95.13;100483.50;107205;1248;59007;-68
2023/07/27 18:59:24;;;;;;;4.40;2.80;;;;;;;17.39;96.16;100486.71;107171;1248;62753;-70
2023/07/27 19:01:53;;;;;;;4.70;2.30;;;;;;;17.31;97.25;100485.37;107240;1246;57368;-68
2023/07/27 19:04:22;;;;;;;3.70;2.20;;;;;;;17.23;97.63;100478.34;107286;1246;57349;-67
2023/07/27 19:06:52;;;;;;;3.90;2.00;;;;;;;17.13;97.93;100473.91;107117;1248;61882;-66
2023/07/27 19:09:21;;;;;;;4.00;2.00;;;;;;;17.04;98.36;100473.64;107083;1245;60955;-66
2023/07/27 19:11:50;;;;;;;2.90;2.10;;;;;;;16.93;99.31;100466.27;107145;1245;71327;-66
2023/07/27 19:14:20;;;;;;;3.30;2.10;;;;;;;16.83;99.95;100462.60;107159;1247;71737;-69
2023/07/27 19:16:49;;;;;;;4.10;2.30;;;;;;;16.77;100.00;100456.73;107169;1246;58964;-66
2023/07/27 19:19:18;;;;;;;3.10;2.10;;;;;;;16.69;100.00;100458.21;109482;1243;57717;-65
2023/07/27 19:21:47;;;;;;;4.50;1.90;;;;;;;16.61;100.00;100458.27;109457;1245;61934;-66
2023/07/27 19:24:16;;;;;;;4.70;2.00;;;;;;;16.58;100.00;100452.58;109390;1244;70960;-68
2023/07/27 19:26:46;;;;;;;4.10;1.90;;;;;;;16.55;100.00;100451.17;109328;1248;61330;-68
2023/07/27 19:29:17;;;;;;;5.30;2.20;;;;;;;16.52;100.00;100453.61;109411;1244;73583;-68
2023/07/27 19:31:46;;;;;;;4.80;2.00;;;;;;;16.49;100.00;100457.09;109399;1245;57229;-67
2023/07/27 19:34:15;;;;;;;6.90;1.90;;;;;;;16.46;100.00;100458.56;109411;1244;57698;-66
2023/07/27 19:36:44;;;;;;;3.90;1.90;;;;;;;16.41;100.00;100457.80;109387;1244;61722;-66
2023/07/27 19:39:13;;;;;;;4.80;1.90;;;;;;;16.44;99.81;100459.85;109413;1244;71516;-67
2023/07/27 19:41:43;;;;;;;3.70;1.70;;;;;;;16.42;99.77;100455.30;109390;1244;71108;-71
2023/07/27 19:44:12;;;;;;;2.60;1.40;;;;;;;16.40;99.58;100460.20;109367;1244;73900;-67
2023/07/27 19:46:40;;;;;;;4.80;1.60;;;;;;;16.37;99.52;100466.89;109317;1245;60117;-68
2023/07/27 19:49:09;;;;;;;4.90;1.50;;;;;;;16.33;99.55;100471.70;109330;1245;57183;-64
2023/07/27 19:51:38;;;;;;;4.60;1.70;;;;;;;16.26;99.66;100467.80;109414;1244;72029;-64
2023/07/27 19:54:07;;;;;;;3.30;1.60;;;;;;;16.22;99.90;100469.62;109390;1245;72809;-63
2023/07/27 19:56:37;;;;;;;5.70;1.80;;;;;;;16.17;100.00;100470.41;109443;1244;70702;-64
2023/07/27 19:59:07;;;;;;;4.40;1.80;;;;;;;16.11;100.00;100476.98;109451;1245;74356;-64
2023/07/27 20:01:35;;;;;;;7.70;2.10;;;;;;;16.09;100.00;100482.65;109462;1245;63272;-70
2023/07/27 20:04:04;;;;;;;6.00;2.00;;;;;;;16.03;100.00;100485.52;109492;1244;62040;-69
2023/07/27 20:06:37;;;;;;;6.30;1.90;;;;;;;15.97;100.00;100486.64;109494;1247;72185;-75
2023/07/27 20:09:06;;;;;;;4.90;2.40;;;;;;;15.93;100.00;100491.09;109350;1248;61690;-69
2023/07/27 20:11:35;;;;;;;3.00;1.50;;;;;;;15.89;100.00;100495.40;109424;1244;69392;-70
2023/07/27 20:14:03;;;;;;;9.40;1.60;;;;;;;15.86;100.00;100500.39;109522;1245;73912;-73
2023/07/27 20:16:32;;;;;;;5.80;1.60;;;;;;;15.82;100.00;100501.31;109503;1245;57678;-69
2023/07/27 20:19:01;;;;;;;5.30;1.70;;;;;;;15.78;100.00;100502.92;109511;1244;61105;-68
2023/07/27 20:21:30;;;;;;;3.40;1.60;;;;;;;15.76;100.00;100502.41;109454;1247;63788;-68
2023/07/27 20:24:00;;;;;;;5.20;2.20;;;;;;;15.74;100.00;100503.87;109399;1244;61479;-68
2023/07/27 20:26:29;;;;;;;2.80;1.30;;;;;;;15.71;100.00;100511.73;109430;1244;59077;-68
2023/07/27 20:28:59;;;;;;;3.30;1.60;;;;;;;15.67;100.00;100518.21;109366;1247;71817;-67
2023/07/27 20:31:29;;;;;;;3.60;1.60;;;;;;;15.62;100.00;100522.58;109469;1245;57449;-67
2023/07/27 20:33:58;;;;;;;2.00;1.30;;;;;;;15.57;100.00;100520.23;109312;1248;62298;-67
2023/07/27 20:36:29;;;;;;;4.10;1.60;;;;;;;15.51;100.00;100520.05;109342;1244;64541;-68
2023/07/27 20:38:59;;;;;;;8.50;2.00;;;;;;;15.49;100.00;100519.42;109250;1244;71465;-69
2023/07/27 20:41:28;;;;;;;2.60;1.60;;;;;;;15.44;100.00;100519.50;109338;1244;70914;-69
2023/07/27 20:43:56;;;;;;;5.80;1.70;;;;;;;15.37;100.00;100518.27;109518;1244;63970;-68
2023/07/27 20:46:25;;;;;;;4.50;1.70;;;;;;;15.30;100.00;100521.41;109505;1244;57599;-68
2023/07/27 20:48:54;;;;;;;2.40;1.50;;;;;;;15.25;100.00;100528.91;109546;1243;60185;-68
2023/07/27 20:51:22;;;;;;;3.30;1.60;;;;;;;15.22;100.00;100528.38;109529;1244;73171;-68
2023/07/27 20:53:51;;;;;;;3.50;1.50;;;;;;;15.15;100.00;100532.00;109471;1244;61946;-68
2023/07/27 20:56:21;;;;;;;4.30;1.80;;;;;;;15.09;100.00;100536.18;109280;1244;69645;-68
2023/07/27 20:58:50;;;;;;;3.80;1.50;;;;;;;15.01;100.00;100537.28;109325;1243;74180;-68
2023/07/27 21:01:19;;;;;;;6.80;1.90;;;;;;;14.93;100.00;100536.80;109373;1244;57554;-69
2023/07/27 21:07:06;;;;;;;5.10;1.60;;;;;;;14.75;100.00;100544.83;104247;1273;602431;-67
2023/07/27 21:09:35;;;;;;;3.60;1.80;;;;;;;14.66;100.00;100544.23;106846;1249;58890;-67
2023/07/27 21:12:05;;;;;;;5.20;2.00;;;;;;;14.58;100.00;100543.26;106967;1248;57347;-69
2023/07/27 21:14:33;;;;;;;2.90;1.50;;;;;;;14.48;100.00;100543.94;106956;1247;71017;-67
2023/07/27 21:17:03;;;;;;;6.80;2.30;;;;;;;14.38;100.00;100547.46;106973;1250;62922;-67
2023/07/27 21:19:33;;;;;;;3.80;1.70;;;;;;;14.30;100.00;100546.62;106662;1249;224180;-67
2023/07/27 21:22:02;;;;;;;5.70;2.10;;;;;;;14.25;100.00;100547.79;107112;1246;74010;-67
2023/07/27 21:24:31;;;;;;;5.30;3.10;;;;;;;14.20;100.00;100546.09;107023;1245;62504;-68
2023/07/27 21:27:00;;;;;;;4.50;2.30;;;;;;;14.15;100.00;100549.54;106956;1246;59593;-68
2023/07/27 21:29:29;;;;;;;6.10;2.00;;;;;;;14.09;100.00;100545.56;106915;1254;63361;-68
2023/07/27 21:31:58;;;;;;;3.90;2.00;;;;;;;14.07;100.00;100545.92;106874;1248;72956;-68
2023/07/27 21:34:28;;;;;;;4.40;1.80;;;;;;;14.07;100.00;100547.83;106887;1246;69611;-67
2023/07/27 21:36:57;;;;;;;7.70;2.30;;;;;;;14.07;100.00;100544.48;106924;1248;62593;-67
2023/07/27 21:39:26;;;;;;;3.60;1.90;;;;;;;14.08;100.00;100544.80;106981;1248;59467;-66
2023/07/27 21:41:56;;;;;;;5.70;1.80;;;;;;;14.08;100.00;100547.90;106988;1248;59061;-69
2023/07/27 21:44:27;;;;;;;2.90;2.10;;;;;;;14.12;100.00;100544.09;106937;1257;73055;-65
2023/07/27 21:46:56;;;;;;;5.80;2.30;;;;;;;14.13;100.00;100540.29;106882;1244;72377;-66
2023/07/27 21:49:26;;;;;;;3.20;1.70;;;;;;;14.16;100.00;100543.73;107042;1254;70423;-70
2023/07/27 21:51:55;;;;;;;4.70;2.50;;;;;;;14.15;100.00;100547.31;106935;1244;74933;-68
2023/07/27 21:54:23;;;;;;;5.10;2.00;;;;;;;14.15;100.00;100546.29;106906;1254;63067;-67
2023/07/27 21:56:52;;;;;;;3.20;2.10;;;;;;;14.13;100.00;100549.39;106976;1245;61519;-66
2023/07/27 21:59:23;;;;;;;5.10;2.10;;;;;;;14.12;100.00;100544.76;106973;1257;72667;-66
2023/07/27 22:01:52;;;;;;;5.40;2.00;;;;;;;14.13;100.00;100540.87;106949;1248;72178;-66
2023/07/27 22:04:21;;;;;;;2.80;2.10;;;;;;;14.14;100.00;100541.45;107022;1247;70473;-67
2023/07/27 22:06:51;;;;;;;3.30;2.00;;;;;;;14.14;100.00;100540.04;106910;1248;74061;-67
2023/07/27 22:09:20;;;;;;;3.00;1.80;;;;;;;14.15;100.00;100541.34;107016;1247;63195;-66
2023/07/27 22:11:48;;;;;;;4.40;2.30;;;;;;;14.16;100.00;100539.02;106979;1245;60579;-66
2023/07/27 22:14:18;;;;;;;4.60;2.20;;;;;;;14.14;100.00;100538.44;106973;1244;72993;-66
2023/07/27 22:16:47;;;;;;;3.70;2.10;;;;;;;14.14;100.00;100535.29;106937;1255;72292;-66
2023/07/27 22:19:16;;;;;;;3.70;2.10;;;;;;;14.15;100.00;100535.89;106929;1247;71259;-67
2023/07/27 22:21:45;;;;;;;3.50;1.80;;;;;;;14.16;100.00;100533.37;106921;1244;74363;-68
2023/07/27 22:24:14;;;;;;;4.40;2.30;;;;;;;14.19;100.00;100532.55;106945;1248;62849;-68
2023/07/27 22:26:43;;;;;;;5.80;2.00;;;;;;;14.22;100.00;100530.35;106978;1255;58304;-66
2023/07/27 22:29:12;;;;;;;4.50;2.60;;;;;;;14.23;100.00;100529.38;106992;1248;62227;-67
2023/07/27 22:31:41;;;;;;;3.20;2.00;;;;;;;14.22;100.00;100532.59;106976;1246;61181;-66
2023/07/27 22:34:10;;;;;;;3.80;2.10;;;;;;;14.24;100.00;100532.33;106764;1248;59492;-66
2023/07/27 22:36:39;;;;;;;4.80;2.50;;;;;;;14.25;100.00;100533.38;106893;1249;62777;-65
2023/07/27 22:39:08;;;;;;;3.60;2.10;;;;;;;14.25;100.00;100536.07;107042;1246;59051;-67
2023/07/27 22:41:37;;;;;;;3.80;2.30;;;;;;;14.25;100.00;100537.63;106915;1244;58982;-67
2023/07/27 22:44:06;;;;;;;3.80;2.30;;;;;;;14.24;100.00;100534.21;107078;1254;61667;-68
2023/07/27 22:46:35;;;;;;;3.60;2.20;;;;;;;14.24;100.00;100533.90;107131;1249;61224;-68
2023/07/27 22:49:05;;;;;;;4.40;2.60;;;;;;;14.23;100.00;100530.98;107219;1245;69645;-68
2023/07/27 22:51:34;;;;;;;5.00;2.50;;;;;;;14.19;100.00;100531.68;107112;1248;71868;-67
2023/07/27 22:54:03;;;;;;;5.60;2.10;;;;;;;14.11;100.00;100538.04;107103;1246;63063;-67
2023/07/27 22:56:32;;;;;;;4.10;2.40;;;;;;;14.04;100.00;100540.17;107142;1245;61002;-66
2023/07/27 22:59:01;;;;;;;4.50;2.50;;;;;;;14.00;100.00;100543.92;107074;1248;72707;-66
2023/07/27 23:01:30;;;;;;;5.50;2.40;;;;;;;13.96;100.00;100546.90;107024;1258;72859;-67
2023/07/27 23:03:59;;;;;;;3.00;2.20;;;;;;;13.93;100.00;100548.70;107046;1248;61247;-68
2023/07/27 23:06:30;;;;;;;3.50;2.30;;;;;;;13.92;100.00;100551.58;107186;1258;73820;-67
2023/07/27 23:08:59;;;;;;;3.40;2.40;;;;;;;13.92;100.00;100549.50;107306;1245;58968;-68
2023/07/27 23:11:30;;;;;;;4.30;2.50;;;;;;;13.93;100.00;100552.38;107140;1245;60566;-67
2023/07/27 23:13:59;;;;;;;4.50;2.50;;;;;;;13.94;100.00;100553.73;107300;1256;62987;-66
2023/07/27 23:16:28;;;;;;;4.40;2.80;;;;;;;13.94;100.00;100550.61;107111;1246;71297;-67
2023/07/27 23:18:57;;;;;;;4.00;2.40;;;;;;;14.01;100.00;100541.48;107149;1251;70896;-68
2023/07/27 23:21:26;;;;;;;5.30;2.50;;;;;;;14.02;100.00;100539.17;107151;1245;73344;-68
2023/07/27 23:23:55;;;;;;;4.80;2.70;;;;;;;13.97;100.00;100539.77;107152;1244;62877;-67
2023/07/27 23:26:23;;;;;;;4.60;2.70;;;;;;;13.93;100.00;100539.08;107277;1244;60215;-67
2023/07/27 23:28:52;;;;;;;4.50;2.40;;;;;;;13.88;100.00;100542.31;107283;1250;72314;-67
2023/07/27 23:31:21;;;;;;;3.60;2.50;;;;;;;13.85;100.00;100550.46;107127;1244;71783;-67
2023/07/27 23:33:50;;;;;;;5.20;2.60;;;;;;;13.87;100.00;100553.77;107148;1256;70959;-67
2023/07/27 23:36:19;;;;;;;6.00;2.90;;;;;;;13.88;100.00;100558.13;106987;1256;73882;-68
2023/07/27 23:38:48;;;;;;;4.50;2.40;;;;;;;13.88;100.00;100561.99;107143;1245;63255;-68
2023/07/27 23:41:17;;;;;;;4.20;2.40;;;;;;;13.84;100.00;100565.44;107244;1244;59056;-68
2023/07/27 23:43:46;;;;;;;3.50;2.50;;;;;;;13.80;100.00;100568.05;107154;1252;61533;-67
2023/07/27 23:46:15;;;;;;;6.00;3.00;;;;;;;13.76;100.00;100567.16;107303;1254;61159;-70
2023/07/27 23:48:44;;;;;;;3.70;2.10;;;;;;;13.74;100.00;100567.94;107275;1245;70719;-70
2023/07/27 23:51:13;;;;;;;4.20;2.50;;;;;;;13.68;100.00;100568.46;107309;1256;73568;-68
2023/07/27 23:53:42;;;;;;;4.70;2.30;;;;;;;13.49;100.00;100566.96;107443;1255;63416;-68
2023/07/27 23:56:11;;;;;;;5.50;2.90;;;;;;;13.30;100.00;100563.50;107266;1248;61221;-69
2023/07/27 23:58:40;;;;;;;4.30;2.70;;;;;;;13.13;100.00;100564.96;107424;1255;64155;-69
